Flight Track Log - Related Links

Times and Time Zones

All times are in EDT time to prevent confusion due to time zone crossing. See the SKW2980 flight status page for this flight to view local times or setup timezone preferences in your user account.

Time Position Orientation Groundspeed Altitude Reporting Facility
EDT Latitude Longitude Course Direction KTS MPH feet Rate Location/Type
Wed 12:59:51 AM 33.4333 -112.0333 239° Southwest 150 173 2,300  Level Phoenix TRACON
Wed 01:00:33 AM 33.4167 -112.0667 239° Southwest 190 219 3,200 2,118 Climbing Phoenix TRACON
Wed 01:01:33 AM 33.3833 -112.1500 244° Southwest 247 284 5,900 2,905 Climbing Phoenix TRACON
Wed 01:02:39 AM 33.3275 -112.2072 221° Southwest 251 289 9,300 2,693 Climbing Albuquerque Center
Wed 01:03:40 AM 33.2758 -112.2714 226° Southwest 262 302 11,600 2,579 Climbing Albuquerque Center
Wed 01:04:40 AM 33.2214 -112.3394 226° Southwest 277 319 14,500 2,182 Climbing Albuquerque Center
Wed 01:05:41 AM 33.1647 -112.4100 226° Southwest 289 333 16,000 738 Climbing Albuquerque Center
Wed 01:06:42 AM 33.0933 -112.5014 227° Southwest 351 404 16,000  Level Albuquerque Center
Wed 01:07:42 AM 33.0206 -112.5919 226° Southwest 375 432 16,000  Level Albuquerque Center
Wed 01:08:43 AM 32.9511 -112.6842 228° Southwest 375 432 16,000  Level Albuquerque Center
Wed 01:09:43 AM 32.9383 -112.8000 263° West 356 410 16,000  Level Albuquerque Center
Wed 01:10:44 AM 32.9236 -112.9147 261° West 354 407 16,000  Level Albuquerque Center
Wed 01:11:45 AM 32.9081 -113.0328 261° West 360 414 16,000  Level Albuquerque Center
Wed 01:12:45 AM 32.8917 -113.1531 261° West 367 422 16,000  Level Albuquerque Center
Wed 01:13:46 AM 32.8744 -113.2761 261° West 374 430 16,000  Level Albuquerque Center
Wed 01:14:47 AM 32.8569 -113.3978 260° West 376 433 16,000 -50 Level Albuquerque Center
Wed 01:15:47 AM 32.8406 -113.5203 261° West 377 434 15,900 -50 Descending Albuquerque Center
Wed 01:16:48 AM 32.8233 -113.6428 261° West 378 435 15,900 -149 Level Albuquerque Center
Wed 01:17:48 AM 32.8064 -113.7631 261° West 374 430 15,600 -1,339 Descending Albuquerque Center
Wed 01:18:49 AM 32.7856 -113.9022 260° West 363 418 13,200 -2,115 Descending Albuquerque Center
Wed 01:19:50 AM 32.7753 -114.0139 264° West 347 399 11,300 -1,686 Descending Albuquerque Center
Wed 01:20:50 AM 32.7644 -114.1075 262° West 300 345 9,800 -1,446 Descending Albuquerque Center
Wed 01:21:13 AM 32.7572 -114.1328 251° West 283 326 9,300 -1,786 Descending Los Angeles Center
Wed 01:22:14 AM 32.7342 -114.2175 252° West 270 311 7,300 -1,686 Descending Los Angeles Center
Wed 01:23:14 AM 32.7175 -114.2839 253° West 267 307 5,900 -1,967 Descending Los Angeles Center
Wed 01:24:16 AM 32.6953 -114.3769 254° West 250 288 3,300 -1,902 Descending Los Angeles Center
Wed 01:25:17 AM 32.6744 -114.4514 252° West 241 277 2,000 -934 Descending Los Angeles Center
Wed 01:26:18 AM 32.6603 -114.5083 254° West 203 234 1,400 -689 Descending Los Angeles Center
Wed 01:27:19 AM 32.6633 -114.5633 274° West 163 188 600 -787 Descending Los Angeles Center

Login

Don't have an account? Register now (free) for customized features, flight alerts, and more!